sensor_id;sensor_type;location;lat;lon;timestamp;P1;durP1;ratioP1;P2;durP2;ratioP2
42430;SDS011;71905;47.466;19.024;2023-09-19T00:01:02;12.43;;;6.28;;
42430;SDS011;71905;47.466;19.024;2023-09-19T00:03:33;12.10;;;5.90;;
42430;SDS011;71905;47.466;19.024;2023-09-19T00:06:04;13.10;;;5.97;;
42430;SDS011;71905;47.466;19.024;2023-09-19T00:08:34;17.77;;;5.80;;
42430;SDS011;71905;47.466;19.024;2023-09-19T00:11:02;13.77;;;6.00;;
42430;SDS011;71905;47.466;19.024;2023-09-19T00:13:30;13.75;;;6.28;;
42430;SDS011;71905;47.466;19.024;2023-09-19T00:15:58;11.60;;;5.72;;
42430;SDS011;71905;47.466;19.024;2023-09-19T00:18:28;12.25;;;5.78;;
42430;SDS011;71905;47.466;19.024;2023-09-19T00:20:58;13.40;;;5.82;;
42430;SDS011;71905;47.466;19.024;2023-09-19T00:23:26;10.73;;;5.97;;
42430;SDS011;71905;47.466;19.024;2023-09-19T00:25:54;9.48;;;6.20;;
42430;SDS011;71905;47.466;19.024;2023-09-19T00:28:26;10.80;;;5.70;;
42430;SDS011;71905;47.466;19.024;2023-09-19T00:30:54;10.10;;;5.95;;
42430;SDS011;71905;47.466;19.024;2023-09-19T00:33:22;12.60;;;6.32;;
42430;SDS011;71905;47.466;19.024;2023-09-19T00:35:52;7.85;;;5.10;;
42430;SDS011;71905;47.466;19.024;2023-09-19T00:38:22;10.82;;;5.60;;
42430;SDS011;71905;47.466;19.024;2023-09-19T00:40:53;14.68;;;6.30;;
42430;SDS011;71905;47.466;19.024;2023-09-19T00:43:26;13.07;;;7.10;;
42430;SDS011;71905;47.466;19.024;2023-09-19T00:45:56;15.88;;;6.90;;
42430;SDS011;71905;47.466;19.024;2023-09-19T00:48:27;11.10;;;6.03;;
42430;SDS011;71905;47.466;19.024;2023-09-19T00:50:57;11.38;;;5.78;;
42430;SDS011;71905;47.466;19.024;2023-09-19T00:53:30;12.52;;;6.07;;
42430;SDS011;71905;47.466;19.024;2023-09-19T00:56:00;12.85;;;6.65;;
42430;SDS011;71905;47.466;19.024;2023-09-19T00:58:30;10.30;;;6.25;;
42430;SDS011;71905;47.466;19.024;2023-09-19T01:01:01;13.38;;;5.65;;
42430;SDS011;71905;47.466;19.024;2023-09-19T01:03:29;8.18;;;5.65;;
42430;SDS011;71905;47.466;19.024;2023-09-19T01:06:00;11.25;;;6.18;;
42430;SDS011;71905;47.466;19.024;2023-09-19T01:08:28;7.93;;;5.68;;
42430;SDS011;71905;47.466;19.024;2023-09-19T01:10:59;12.43;;;6.30;;
42430;SDS011;71905;47.466;19.024;2023-09-19T01:13:34;8.82;;;5.97;;
42430;SDS011;71905;47.466;19.024;2023-09-19T01:16:14;11.82;;;6.47;;
42430;SDS011;71905;47.466;19.024;2023-09-19T01:19:02;9.18;;;6.10;;
42430;SDS011;71905;47.466;19.024;2023-09-19T01:21:44;11.10;;;7.00;;
42430;SDS011;71905;47.466;19.024;2023-09-19T01:24:28;11.93;;;6.78;;
42430;SDS011;71905;47.466;19.024;2023-09-19T01:27:17;10.98;;;7.43;;
42430;SDS011;71905;47.466;19.024;2023-09-19T01:30:09;13.93;;;7.22;;
42430;SDS011;71905;47.466;19.024;2023-09-19T01:32:38;9.75;;;6.78;;
42430;SDS011;71905;47.466;19.024;2023-09-19T01:35:08;10.60;;;6.47;;
42430;SDS011;71905;47.466;19.024;2023-09-19T01:37:39;9.55;;;6.30;;
42430;SDS011;71905;47.466;19.024;2023-09-19T01:40:12;12.63;;;7.00;;
42430;SDS011;71905;47.466;19.024;2023-09-19T01:42:45;12.32;;;7.38;;
42430;SDS011;71905;47.466;19.024;2023-09-19T01:45:28;12.27;;;7.50;;
42430;SDS011;71905;47.466;19.024;2023-09-19T01:48:03;13.50;;;7.75;;
42430;SDS011;71905;47.466;19.024;2023-09-19T01:50:42;10.55;;;7.35;;
42430;SDS011;71905;47.466;19.024;2023-09-19T01:55:48;17.02;;;8.02;;
42430;SDS011;71905;47.466;19.024;2023-09-19T01:58:20;15.90;;;8.25;;
42430;SDS011;71905;47.466;19.024;2023-09-19T02:00:55;13.52;;;7.63;;
42430;SDS011;71905;47.466;19.024;2023-09-19T02:03:26;11.38;;;7.32;;
42430;SDS011;71905;47.466;19.024;2023-09-19T02:05:55;11.98;;;7.43;;
42430;SDS011;71905;47.466;19.024;2023-09-19T02:08:23;13.32;;;7.85;;
42430;SDS011;71905;47.466;19.024;2023-09-19T02:10:51;11.18;;;6.93;;
42430;SDS011;71905;47.466;19.024;2023-09-19T02:13:21;10.05;;;7.47;;
42430;SDS011;71905;47.466;19.024;2023-09-19T02:15:51;16.77;;;8.20;;
42430;SDS011;71905;47.466;19.024;2023-09-19T02:18:20;15.48;;;7.38;;
42430;SDS011;71905;47.466;19.024;2023-09-19T02:20:49;12.05;;;8.32;;
42430;SDS011;71905;47.466;19.024;2023-09-19T02:23:17;19.55;;;8.75;;
42430;SDS011;71905;47.466;19.024;2023-09-19T02:25:51;12.52;;;8.80;;
42430;SDS011;71905;47.466;19.024;2023-09-19T02:28:20;13.15;;;7.68;;
42430;SDS011;71905;47.466;19.024;2023-09-19T02:30:50;16.17;;;8.02;;
42430;SDS011;71905;47.466;19.024;2023-09-19T02:33:18;13.13;;;7.78;;
42430;SDS011;71905;47.466;19.024;2023-09-19T02:35:47;12.02;;;8.18;;
42430;SDS011;71905;47.466;19.024;2023-09-19T02:38:16;13.98;;;8.10;;
42430;SDS011;71905;47.466;19.024;2023-09-19T02:40:51;10.95;;;7.18;;
42430;SDS011;71905;47.466;19.024;2023-09-19T02:43:19;13.65;;;8.05;;
42430;SDS011;71905;47.466;19.024;2023-09-19T02:45:48;11.52;;;7.28;;
42430;SDS011;71905;47.466;19.024;2023-09-19T02:48:17;10.48;;;7.90;;
42430;SDS011;71905;47.466;19.024;2023-09-19T02:50:46;13.77;;;8.05;;
42430;SDS011;71905;47.466;19.024;2023-09-19T02:53:17;11.50;;;7.32;;
42430;SDS011;71905;47.466;19.024;2023-09-19T02:55:46;11.38;;;7.80;;
42430;SDS011;71905;47.466;19.024;2023-09-19T02:58:15;14.73;;;7.97;;
42430;SDS011;71905;47.466;19.024;2023-09-19T03:00:46;12.45;;;8.77;;
42430;SDS011;71905;47.466;19.024;2023-09-19T03:03:16;12.73;;;8.10;;
42430;SDS011;71905;47.466;19.024;2023-09-19T03:05:45;15.63;;;9.35;;
42430;SDS011;71905;47.466;19.024;2023-09-19T03:08:18;14.50;;;8.30;;
42430;SDS011;71905;47.466;19.024;2023-09-19T03:10:47;14.50;;;8.77;;
42430;SDS011;71905;47.466;19.024;2023-09-19T03:13:15;15.48;;;8.32;;
42430;SDS011;71905;47.466;19.024;2023-09-19T03:15:44;13.52;;;8.35;;
42430;SDS011;71905;47.466;19.024;2023-09-19T03:18:20;13.25;;;8.57;;
42430;SDS011;71905;47.466;19.024;2023-09-19T03:20:52;20.92;;;9.43;;
42430;SDS011;71905;47.466;19.024;2023-09-19T03:23:23;15.07;;;8.60;;
42430;SDS011;71905;47.466;19.024;2023-09-19T03:25:52;15.65;;;8.45;;
42430;SDS011;71905;47.466;19.024;2023-09-19T03:28:21;18.55;;;9.13;;
42430;SDS011;71905;47.466;19.024;2023-09-19T03:30:59;13.88;;;9.30;;
42430;SDS011;71905;47.466;19.024;2023-09-19T03:33:30;16.55;;;9.32;;
42430;SDS011;71905;47.466;19.024;2023-09-19T03:36:01;13.82;;;9.00;;
42430;SDS011;71905;47.466;19.024;2023-09-19T03:38:33;15.10;;;8.68;;
42430;SDS011;71905;47.466;19.024;2023-09-19T03:41:02;17.60;;;9.45;;
42430;SDS011;71905;47.466;19.024;2023-09-19T03:43:33;15.38;;;9.10;;
42430;SDS011;71905;47.466;19.024;2023-09-19T03:46:02;17.88;;;9.85;;
42430;SDS011;71905;47.466;19.024;2023-09-19T03:48:32;15.65;;;8.98;;
42430;SDS011;71905;47.466;19.024;2023-09-19T03:51:02;14.90;;;9.30;;
42430;SDS011;71905;47.466;19.024;2023-09-19T03:53:30;13.45;;;8.52;;
42430;SDS011;71905;47.466;19.024;2023-09-19T03:55:59;16.50;;;8.85;;
42430;SDS011;71905;47.466;19.024;2023-09-19T03:58:30;16.27;;;9.13;;
42430;SDS011;71905;47.466;19.024;2023-09-19T04:01:00;14.50;;;9.02;;
42430;SDS011;71905;47.466;19.024;2023-09-19T04:03:29;18.95;;;9.48;;
42430;SDS011;71905;47.466;19.024;2023-09-19T04:06:02;16.48;;;9.25;;
42430;SDS011;71905;47.466;19.024;2023-09-19T04:08:31;15.52;;;8.82;;
42430;SDS011;71905;47.466;19.024;2023-09-19T04:11:00;17.20;;;9.32;;
42430;SDS011;71905;47.466;19.024;2023-09-19T04:13:28;15.43;;;8.63;;
42430;SDS011;71905;47.466;19.024;2023-09-19T04:15:56;13.25;;;8.60;;
42430;SDS011;71905;47.466;19.024;2023-09-19T04:18:24;16.52;;;9.95;;
42430;SDS011;71905;47.466;19.024;2023-09-19T04:20:53;19.45;;;10.70;;
42430;SDS011;71905;47.466;19.024;2023-09-19T04:23:23;17.45;;;10.10;;
42430;SDS011;71905;47.466;19.024;2023-09-19T04:25:53;15.60;;;10.13;;
42430;SDS011;71905;47.466;19.024;2023-09-19T04:28:22;18.17;;;10.10;;
42430;SDS011;71905;47.466;19.024;2023-09-19T04:30:51;17.17;;;10.23;;
42430;SDS011;71905;47.466;19.024;2023-09-19T04:33:19;20.08;;;10.70;;
42430;SDS011;71905;47.466;19.024;2023-09-19T04:35:48;19.35;;;10.02;;
42430;SDS011;71905;47.466;19.024;2023-09-19T04:38:17;18.35;;;10.52;;
42430;SDS011;71905;47.466;19.024;2023-09-19T04:40:45;18.00;;;9.82;;
42430;SDS011;71905;47.466;19.024;2023-09-19T04:43:13;14.40;;;8.85;;
42430;SDS011;71905;47.466;19.024;2023-09-19T04:45:43;19.08;;;10.20;;
42430;SDS011;71905;47.466;19.024;2023-09-19T04:48:11;17.15;;;10.32;;
42430;SDS011;71905;47.466;19.024;2023-09-19T04:50:41;16.98;;;7.40;;
42430;SDS011;71905;47.466;19.024;2023-09-19T04:53:09;12.88;;;5.90;;
42430;SDS011;71905;47.466;19.024;2023-09-19T04:55:37;9.52;;;4.53;;
42430;SDS011;71905;47.466;19.024;2023-09-19T04:58:05;8.82;;;3.10;;
42430;SDS011;71905;47.466;19.024;2023-09-19T05:00:33;9.45;;;2.35;;
42430;SDS011;71905;47.466;19.024;2023-09-19T05:03:03;6.20;;;2.10;;
42430;SDS011;71905;47.466;19.024;2023-09-19T05:05:35;6.78;;;1.88;;
42430;SDS011;71905;47.466;19.024;2023-09-19T05:08:05;5.85;;;1.50;;
42430;SDS011;71905;47.466;19.024;2023-09-19T05:10:35;3.00;;;1.20;;
42430;SDS011;71905;47.466;19.024;2023-09-19T05:13:04;7.32;;;1.20;;
42430;SDS011;71905;47.466;19.024;2023-09-19T05:15:34;6.15;;;1.30;;
42430;SDS011;71905;47.466;19.024;2023-09-19T05:18:04;6.85;;;1.33;;
42430;SDS011;71905;47.466;19.024;2023-09-19T05:20:33;4.18;;;1.20;;
42430;SDS011;71905;47.466;19.024;2023-09-19T05:23:05;5.63;;;1.15;;
42430;SDS011;71905;47.466;19.024;2023-09-19T05:25:36;4.72;;;0.90;;
42430;SDS011;71905;47.466;19.024;2023-09-19T05:28:05;5.13;;;1.23;;
42430;SDS011;71905;47.466;19.024;2023-09-19T05:30:34;4.88;;;0.73;;
42430;SDS011;71905;47.466;19.024;2023-09-19T05:33:07;3.63;;;0.80;;
42430;SDS011;71905;47.466;19.024;2023-09-19T05:35:35;2.67;;;0.80;;
42430;SDS011;71905;47.466;19.024;2023-09-19T05:38:06;10.70;;;1.73;;
42430;SDS011;71905;47.466;19.024;2023-09-19T05:40:35;6.65;;;0.90;;
42430;SDS011;71905;47.466;19.024;2023-09-19T05:43:05;4.47;;;1.20;;
42430;SDS011;71905;47.466;19.024;2023-09-19T05:45:33;18.83;;;2.28;;
42430;SDS011;71905;47.466;19.024;2023-09-19T05:48:08;6.03;;;1.08;;
42430;SDS011;71905;47.466;19.024;2023-09-19T05:50:38;32.83;;;4.10;;
42430;SDS011;71905;47.466;19.024;2023-09-19T05:53:06;21.35;;;2.38;;
42430;SDS011;71905;47.466;19.024;2023-09-19T05:55:34;13.23;;;2.05;;
42430;SDS011;71905;47.466;19.024;2023-09-19T05:58:02;11.75;;;1.50;;
42430;SDS011;71905;47.466;19.024;2023-09-19T06:00:31;10.88;;;1.08;;
42430;SDS011;71905;47.466;19.024;2023-09-19T06:03:01;39.33;;;5.30;;
42430;SDS011;71905;47.466;19.024;2023-09-19T06:05:30;32.60;;;3.85;;
42430;SDS011;71905;47.466;19.024;2023-09-19T06:07:58;26.20;;;2.65;;
42430;SDS011;71905;47.466;19.024;2023-09-19T06:10:27;3.80;;;0.93;;
42430;SDS011;71905;47.466;19.024;2023-09-19T06:12:57;41.92;;;3.88;;
42430;SDS011;71905;47.466;19.024;2023-09-19T06:15:25;17.45;;;2.38;;
42430;SDS011;71905;47.466;19.024;2023-09-19T06:17:54;5.55;;;1.40;;
42430;SDS011;71905;47.466;19.024;2023-09-19T06:20:24;9.82;;;1.27;;
42430;SDS011;71905;47.466;19.024;2023-09-19T06:22:57;3.80;;;0.73;;
42430;SDS011;71905;47.466;19.024;2023-09-19T06:25:26;3.05;;;0.80;;
42430;SDS011;71905;47.466;19.024;2023-09-19T06:27:54;2.42;;;0.80;;
42430;SDS011;71905;47.466;19.024;2023-09-19T06:30:23;4.25;;;1.08;;
42430;SDS011;71905;47.466;19.024;2023-09-19T06:32:55;9.95;;;1.33;;
42430;SDS011;71905;47.466;19.024;2023-09-19T06:35:25;10.05;;;1.02;;
42430;SDS011;71905;47.466;19.024;2023-09-19T06:37:54;3.78;;;1.00;;
42430;SDS011;71905;47.466;19.024;2023-09-19T06:40:26;2.40;;;0.90;;
42430;SDS011;71905;47.466;19.024;2023-09-19T06:42:55;5.90;;;0.98;;
42430;SDS011;71905;47.466;19.024;2023-09-19T06:45:23;1.52;;;0.52;;
42430;SDS011;71905;47.466;19.024;2023-09-19T06:47:53;2.75;;;0.70;;
42430;SDS011;71905;47.466;19.024;2023-09-19T06:50:25;3.47;;;0.60;;
42430;SDS011;71905;47.466;19.024;2023-09-19T06:52:54;1.58;;;0.60;;
42430;SDS011;71905;47.466;19.024;2023-09-19T06:55:25;2.67;;;0.70;;
42430;SDS011;71905;47.466;19.024;2023-09-19T06:57:59;5.22;;;0.90;;
42430;SDS011;71905;47.466;19.024;2023-09-19T07:00:28;2.05;;;0.70;;
42430;SDS011;71905;47.466;19.024;2023-09-19T07:02:58;1.48;;;0.52;;
42430;SDS011;71905;47.466;19.024;2023-09-19T07:05:31;2.30;;;0.90;;
42430;SDS011;71905;47.466;19.024;2023-09-19T07:07:59;1.20;;;0.50;;
42430;SDS011;71905;47.466;19.024;2023-09-19T07:10:29;2.65;;;0.70;;
42430;SDS011;71905;47.466;19.024;2023-09-19T07:12:59;1.52;;;0.60;;
42430;SDS011;71905;47.466;19.024;2023-09-19T07:15:27;1.48;;;0.60;;
42430;SDS011;71905;47.466;19.024;2023-09-19T07:17:57;1.60;;;0.70;;
42430;SDS011;71905;47.466;19.024;2023-09-19T07:20:28;1.77;;;0.68;;
42430;SDS011;71905;47.466;19.024;2023-09-19T07:22:59;2.50;;;0.65;;
42430;SDS011;71905;47.466;19.024;2023-09-19T07:25:28;2.28;;;0.60;;
42430;SDS011;71905;47.466;19.024;2023-09-19T07:27:58;2.25;;;0.60;;
42430;SDS011;71905;47.466;19.024;2023-09-19T07:30:27;4.80;;;1.10;;
42430;SDS011;71905;47.466;19.024;2023-09-19T07:32:56;7.35;;;2.03;;
42430;SDS011;71905;47.466;19.024;2023-09-19T07:35:24;30.33;;;2.25;;
42430;SDS011;71905;47.466;19.024;2023-09-19T07:37:53;6.20;;;1.80;;
42430;SDS011;71905;47.466;19.024;2023-09-19T07:40:23;3.50;;;1.05;;
42430;SDS011;71905;47.466;19.024;2023-09-19T07:42:55;7.63;;;0.95;;
42430;SDS011;71905;47.466;19.024;2023-09-19T07:45:23;2.95;;;1.00;;
42430;SDS011;71905;47.466;19.024;2023-09-19T07:47:51;4.57;;;1.88;;
42430;SDS011;71905;47.466;19.024;2023-09-19T07:50:20;4.75;;;1.33;;
42430;SDS011;71905;47.466;19.024;2023-09-19T07:52:48;4.03;;;1.00;;
42430;SDS011;71905;47.466;19.024;2023-09-19T07:55:17;3.05;;;1.00;;
42430;SDS011;71905;47.466;19.024;2023-09-19T07:57:46;4.43;;;0.95;;
42430;SDS011;71905;47.466;19.024;2023-09-19T08:00:16;3.20;;;1.27;;
42430;SDS011;71905;47.466;19.024;2023-09-19T08:02:45;2.47;;;1.05;;
42430;SDS011;71905;47.466;19.024;2023-09-19T08:05:22;4.30;;;1.35;;
42430;SDS011;71905;47.466;19.024;2023-09-19T08:07:50;7.50;;;1.50;;
42430;SDS011;71905;47.466;19.024;2023-09-19T08:10:19;4.30;;;1.27;;
42430;SDS011;71905;47.466;19.024;2023-09-19T08:12:48;3.70;;;1.13;;
42430;SDS011;71905;47.466;19.024;2023-09-19T08:15:24;2.58;;;1.25;;
42430;SDS011;71905;47.466;19.024;2023-09-19T08:17:52;2.63;;;1.52;;
42430;SDS011;71905;47.466;19.024;2023-09-19T08:20:20;2.55;;;1.20;;
42430;SDS011;71905;47.466;19.024;2023-09-19T08:22:49;3.28;;;1.17;;
42430;SDS011;71905;47.466;19.024;2023-09-19T08:25:19;4.00;;;1.30;;
42430;SDS011;71905;47.466;19.024;2023-09-19T08:27:48;4.05;;;1.33;;
42430;SDS011;71905;47.466;19.024;2023-09-19T08:30:18;3.08;;;1.10;;
42430;SDS011;71905;47.466;19.024;2023-09-19T08:32:52;4.35;;;1.80;;
42430;SDS011;71905;47.466;19.024;2023-09-19T08:35:25;2.85;;;1.60;;
42430;SDS011;71905;47.466;19.024;2023-09-19T08:37:53;3.20;;;1.30;;
42430;SDS011;71905;47.466;19.024;2023-09-19T08:40:23;3.17;;;1.20;;
42430;SDS011;71905;47.466;19.024;2023-09-19T08:42:58;2.72;;;1.13;;
42430;SDS011;71905;47.466;19.024;2023-09-19T08:45:26;7.32;;;1.23;;
42430;SDS011;71905;47.466;19.024;2023-09-19T08:48:00;5.75;;;1.30;;
42430;SDS011;71905;47.466;19.024;2023-09-19T08:50:43;3.00;;;1.10;;
42430;SDS011;71905;47.466;19.024;2023-09-19T08:53:16;3.28;;;1.10;;
42430;SDS011;71905;47.466;19.024;2023-09-19T08:55:50;3.22;;;1.20;;
42430;SDS011;71905;47.466;19.024;2023-09-19T08:58:25;3.40;;;1.10;;
42430;SDS011;71905;47.466;19.024;2023-09-19T09:00:56;4.28;;;1.20;;
42430;SDS011;71905;47.466;19.024;2023-09-19T09:03:32;4.20;;;1.30;;
42430;SDS011;71905;47.466;19.024;2023-09-19T09:06:01;2.97;;;1.35;;
42430;SDS011;71905;47.466;19.024;2023-09-19T09:08:30;4.88;;;1.50;;
42430;SDS011;71905;47.466;19.024;2023-09-19T09:10:59;2.63;;;1.33;;
42430;SDS011;71905;47.466;19.024;2023-09-19T09:13:27;3.15;;;1.33;;
42430;SDS011;71905;47.466;19.024;2023-09-19T09:15:57;5.40;;;2.15;;
42430;SDS011;71905;47.466;19.024;2023-09-19T09:18:26;4.80;;;1.75;;
42430;SDS011;71905;47.466;19.024;2023-09-19T09:20:57;4.45;;;1.40;;
42430;SDS011;71905;47.466;19.024;2023-09-19T09:23:26;2.70;;;1.48;;
42430;SDS011;71905;47.466;19.024;2023-09-19T09:25:56;4.88;;;1.42;;
42430;SDS011;71905;47.466;19.024;2023-09-19T09:28:29;3.30;;;1.50;;
42430;SDS011;71905;47.466;19.024;2023-09-19T09:31:00;2.45;;;1.50;;
42430;SDS011;71905;47.466;19.024;2023-09-19T09:33:29;6.65;;;1.88;;
42430;SDS011;71905;47.466;19.024;2023-09-19T09:35:59;5.82;;;1.98;;
42430;SDS011;71905;47.466;19.024;2023-09-19T09:38:30;6.57;;;2.03;;
42430;SDS011;71905;47.466;19.024;2023-09-19T09:41:11;3.78;;;2.00;;
42430;SDS011;71905;47.466;19.024;2023-09-19T09:43:42;4.00;;;1.60;;
42430;SDS011;71905;47.466;19.024;2023-09-19T09:46:13;4.32;;;1.67;;
42430;SDS011;71905;47.466;19.024;2023-09-19T09:49:00;4.10;;;2.05;;
42430;SDS011;71905;47.466;19.024;2023-09-19T09:51:48;4.72;;;1.70;;
42430;SDS011;71905;47.466;19.024;2023-09-19T09:54:26;3.67;;;1.10;;
42430;SDS011;71905;47.466;19.024;2023-09-19T09:57:01;3.28;;;1.60;;
42430;SDS011;71905;47.466;19.024;2023-09-19T09:59:47;4.68;;;2.30;;
42430;SDS011;71905;47.466;19.024;2023-09-19T10:02:17;5.65;;;2.10;;
42430;SDS011;71905;47.466;19.024;2023-09-19T10:04:51;4.35;;;2.30;;
42430;SDS011;71905;47.466;19.024;2023-09-19T10:07:28;3.40;;;2.20;;
42430;SDS011;71905;47.466;19.024;2023-09-19T10:10:02;10.85;;;2.55;;
42430;SDS011;71905;47.466;19.024;2023-09-19T10:12:44;3.67;;;2.00;;
42430;SDS011;71905;47.466;19.024;2023-09-19T10:15:15;4.82;;;2.58;;
42430;SDS011;71905;47.466;19.024;2023-09-19T10:17:47;4.78;;;2.50;;
42430;SDS011;71905;47.466;19.024;2023-09-19T10:20:16;4.55;;;2.78;;
42430;SDS011;71905;47.466;19.024;2023-09-19T10:23:05;3.63;;;2.30;;
42430;SDS011;71905;47.466;19.024;2023-09-19T10:25:40;4.05;;;2.40;;
42430;SDS011;71905;47.466;19.024;2023-09-19T10:28:09;4.70;;;2.42;;
42430;SDS011;71905;47.466;19.024;2023-09-19T10:30:41;3.80;;;2.55;;
42430;SDS011;71905;47.466;19.024;2023-09-19T10:33:11;4.18;;;2.45;;
42430;SDS011;71905;47.466;19.024;2023-09-19T10:35:41;6.53;;;2.80;;
42430;SDS011;71905;47.466;19.024;2023-09-19T10:38:13;3.85;;;2.55;;
42430;SDS011;71905;47.466;19.024;2023-09-19T10:40:45;3.95;;;2.65;;
42430;SDS011;71905;47.466;19.024;2023-09-19T10:43:18;4.30;;;3.13;;
42430;SDS011;71905;47.466;19.024;2023-09-19T10:45:48;4.97;;;2.58;;
42430;SDS011;71905;47.466;19.024;2023-09-19T10:48:19;4.25;;;2.60;;
42430;SDS011;71905;47.466;19.024;2023-09-19T10:50:55;4.32;;;2.97;;
42430;SDS011;71905;47.466;19.024;2023-09-19T10:53:41;6.13;;;3.45;;
42430;SDS011;71905;47.466;19.024;2023-09-19T10:56:18;4.35;;;3.35;;
42430;SDS011;71905;47.466;19.024;2023-09-19T10:59:04;5.38;;;3.80;;
42430;SDS011;71905;47.466;19.024;2023-09-19T11:01:44;7.15;;;4.28;;
42430;SDS011;71905;47.466;19.024;2023-09-19T11:04:21;5.47;;;4.18;;
42430;SDS011;71905;47.466;19.024;2023-09-19T11:07:04;5.30;;;3.70;;
42430;SDS011;71905;47.466;19.024;2023-09-19T11:09:44;5.30;;;3.58;;
42430;SDS011;71905;47.466;19.024;2023-09-19T11:24:29;3.72;;;2.00;;
42430;SDS011;71905;47.466;19.024;2023-09-19T11:27:10;4.32;;;1.90;;
42430;SDS011;71905;47.466;19.024;2023-09-19T11:29:40;4.45;;;1.63;;
42430;SDS011;71905;47.466;19.024;2023-09-19T11:32:08;3.67;;;1.15;;
42430;SDS011;71905;47.466;19.024;2023-09-19T11:34:38;3.58;;;1.10;;
42430;SDS011;71905;47.466;19.024;2023-09-19T11:40:34;4.32;;;1.40;;
42430;SDS011;71905;47.466;19.024;2023-09-19T11:46:05;2.05;;;1.10;;
42430;SDS011;71905;47.466;19.024;2023-09-19T11:48:40;6.35;;;1.27;;
42430;SDS011;71905;47.466;19.024;2023-09-19T11:51:11;2.72;;;1.30;;
42430;SDS011;71905;47.466;19.024;2023-09-19T11:53:46;6.47;;;1.17;;
42430;SDS011;71905;47.466;19.024;2023-09-19T11:56:16;3.42;;;1.33;;
42430;SDS011;71905;47.466;19.024;2023-09-19T11:58:50;3.75;;;1.10;;
42430;SDS011;71905;47.466;19.024;2023-09-19T12:01:30;3.38;;;1.55;;
42430;SDS011;71905;47.466;19.024;2023-09-19T12:04:01;3.00;;;1.38;;
42430;SDS011;71905;47.466;19.024;2023-09-19T12:06:31;3.83;;;1.27;;
42430;SDS011;71905;47.466;19.024;2023-09-19T12:08:59;4.55;;;1.70;;
42430;SDS011;71905;47.466;19.024;2023-09-19T12:11:29;4.20;;;1.10;;
42430;SDS011;71905;47.466;19.024;2023-09-19T12:14:04;4.47;;;1.10;;
42430;SDS011;71905;47.466;19.024;2023-09-19T12:16:34;4.07;;;1.20;;
42430;SDS011;71905;47.466;19.024;2023-09-19T12:19:18;3.65;;;1.15;;
42430;SDS011;71905;47.466;19.024;2023-09-19T12:21:59;2.67;;;1.30;;
42430;SDS011;71905;47.466;19.024;2023-09-19T12:24:31;4.90;;;1.45;;
42430;SDS011;71905;47.466;19.024;2023-09-19T12:27:02;3.13;;;1.40;;
42430;SDS011;71905;47.466;19.024;2023-09-19T12:29:43;5.38;;;1.50;;
42430;SDS011;71905;47.466;19.024;2023-09-19T12:32:13;4.35;;;1.63;;
42430;SDS011;71905;47.466;19.024;2023-09-19T12:34:50;4.80;;;1.90;;
42430;SDS011;71905;47.466;19.024;2023-09-19T12:37:20;10.18;;;2.65;;
42430;SDS011;71905;47.466;19.024;2023-09-19T12:39:49;3.45;;;1.45;;
42430;SDS011;71905;47.466;19.024;2023-09-19T12:42:21;16.23;;;3.00;;
42430;SDS011;71905;47.466;19.024;2023-09-19T12:44:52;5.53;;;1.85;;
42430;SDS011;71905;47.466;19.024;2023-09-19T12:47:24;5.93;;;1.48;;
42430;SDS011;71905;47.466;19.024;2023-09-19T12:50:08;7.78;;;1.88;;
42430;SDS011;71905;47.466;19.024;2023-09-19T12:52:42;4.00;;;1.70;;
42430;SDS011;71905;47.466;19.024;2023-09-19T12:55:20;2.67;;;1.30;;
42430;SDS011;71905;47.466;19.024;2023-09-19T12:58:01;3.45;;;1.65;;
42430;SDS011;71905;47.466;19.024;2023-09-19T13:00:38;4.50;;;1.33;;
42430;SDS011;71905;47.466;19.024;2023-09-19T13:03:11;5.53;;;1.70;;
42430;SDS011;71905;47.466;19.024;2023-09-19T13:05:52;4.68;;;1.50;;
42430;SDS011;71905;47.466;19.024;2023-09-19T13:08:25;8.07;;;1.52;;
42430;SDS011;71905;47.466;19.024;2023-09-19T13:10:59;3.17;;;1.30;;
42430;SDS011;71905;47.466;19.024;2023-09-19T13:13:40;5.40;;;1.30;;
42430;SDS011;71905;47.466;19.024;2023-09-19T13:16:16;3.58;;;1.55;;
42430;SDS011;71905;47.466;19.024;2023-09-19T13:18:49;4.90;;;1.20;;
42430;SDS011;71905;47.466;19.024;2023-09-19T13:21:27;10.05;;;1.95;;
42430;SDS011;71905;47.466;19.024;2023-09-19T13:26:46;3.90;;;1.38;;
42430;SDS011;71905;47.466;19.024;2023-09-19T13:29:14;4.68;;;1.50;;
42430;SDS011;71905;47.466;19.024;2023-09-19T13:31:49;3.08;;;1.48;;
42430;SDS011;71905;47.466;19.024;2023-09-19T13:34:19;4.20;;;1.75;;
42430;SDS011;71905;47.466;19.024;2023-09-19T13:36:47;3.10;;;1.58;;
42430;SDS011;71905;47.466;19.024;2023-09-19T13:39:16;3.33;;;1.70;;
42430;SDS011;71905;47.466;19.024;2023-09-19T13:41:45;6.40;;;1.95;;
42430;SDS011;71905;47.466;19.024;2023-09-19T13:44:14;6.75;;;2.10;;
42430;SDS011;71905;47.466;19.024;2023-09-19T13:46:44;6.30;;;1.65;;
42430;SDS011;71905;47.466;19.024;2023-09-19T13:49:15;7.32;;;1.75;;
42430;SDS011;71905;47.466;19.024;2023-09-19T13:51:48;6.70;;;1.80;;
42430;SDS011;71905;47.466;19.024;2023-09-19T13:54:16;2.67;;;1.50;;
42430;SDS011;71905;47.466;19.024;2023-09-19T13:56:44;5.00;;;1.55;;
42430;SDS011;71905;47.466;19.024;2023-09-19T13:59:12;3.05;;;1.58;;
42430;SDS011;71905;47.466;19.024;2023-09-19T14:01:40;6.65;;;1.45;;
42430;SDS011;71905;47.466;19.024;2023-09-19T14:04:09;4.00;;;1.40;;
42430;SDS011;71905;47.466;19.024;2023-09-19T14:06:42;6.40;;;1.50;;
42430;SDS011;71905;47.466;19.024;2023-09-19T14:09:12;4.13;;;1.55;;
42430;SDS011;71905;47.466;19.024;2023-09-19T14:11:40;5.13;;;2.08;;
42430;SDS011;71905;47.466;19.024;2023-09-19T14:14:08;5.78;;;1.50;;
42430;SDS011;71905;47.466;19.024;2023-09-19T14:16:37;4.35;;;1.70;;
42430;SDS011;71905;47.466;19.024;2023-09-19T14:19:07;2.50;;;1.50;;
42430;SDS011;71905;47.466;19.024;2023-09-19T14:21:35;4.03;;;1.60;;
42430;SDS011;71905;47.466;19.024;2023-09-19T14:24:07;4.55;;;1.60;;
42430;SDS011;71905;47.466;19.024;2023-09-19T14:26:36;2.67;;;1.50;;
42430;SDS011;71905;47.466;19.024;2023-09-19T14:29:04;3.00;;;1.30;;
42430;SDS011;71905;47.466;19.024;2023-09-19T14:31:34;5.15;;;1.70;;
42430;SDS011;71905;47.466;19.024;2023-09-19T14:34:04;3.75;;;1.30;;
42430;SDS011;71905;47.466;19.024;2023-09-19T14:36:33;4.97;;;1.50;;
42430;SDS011;71905;47.466;19.024;2023-09-19T14:39:01;3.42;;;1.30;;
42430;SDS011;71905;47.466;19.024;2023-09-19T14:41:31;3.53;;;1.45;;
42430;SDS011;71905;47.466;19.024;2023-09-19T14:44:01;3.13;;;1.85;;
42430;SDS011;71905;47.466;19.024;2023-09-19T14:46:30;2.28;;;1.38;;
42430;SDS011;71905;47.466;19.024;2023-09-19T14:48:58;4.57;;;1.65;;
42430;SDS011;71905;47.466;19.024;2023-09-19T14:51:29;3.88;;;1.90;;
42430;SDS011;71905;47.466;19.024;2023-09-19T14:53:57;5.43;;;1.50;;
42430;SDS011;71905;47.466;19.024;2023-09-19T14:56:28;4.13;;;1.45;;
42430;SDS011;71905;47.466;19.024;2023-09-19T14:58:59;4.53;;;1.63;;
42430;SDS011;71905;47.466;19.024;2023-09-19T15:01:28;4.22;;;1.48;;
42430;SDS011;71905;47.466;19.024;2023-09-19T15:03:57;4.95;;;1.73;;
42430;SDS011;71905;47.466;19.024;2023-09-19T15:06:28;3.22;;;1.20;;
42430;SDS011;71905;47.466;19.024;2023-09-19T15:08:57;4.90;;;1.33;;
42430;SDS011;71905;47.466;19.024;2023-09-19T15:11:25;4.00;;;1.23;;
42430;SDS011;71905;47.466;19.024;2023-09-19T15:13:54;2.53;;;1.30;;
42430;SDS011;71905;47.466;19.024;2023-09-19T15:16:25;5.20;;;1.30;;